Time;durP1;ratioP1;P1;durP2;ratioP2;P2;SDS_P1;SDS_P2;PMS_P1;PMS_P2;Temp;Humidity;BMP_temperature;BMP_pressure;BME280_temperature;BME280_humidity;BME280_pressure;Samples;Min_cycle;Max_cycle;Signal;HPM_P1;HPM_P2
2021/12/06 00:01:10;;;;;;;6.18;4.43;;;17.80;45.40;;;;;;5075875;28;20198;-63
2021/12/06 00:03:41;;;;;;;6.70;5.03;;;17.80;46.10;;;;;;5094132;28;20170;-63
2021/12/06 00:06:10;;;;;;;5.65;4.45;;;17.80;45.50;;;;;;5094124;28;20646;-62
2021/12/06 00:08:38;;;;;;;5.75;4.47;;;17.80;45.60;;;;;;5075939;28;20664;-63
2021/12/06 00:11:08;;;;;;;5.63;4.68;;;17.70;45.50;;;;;;5075851;28;20201;-63
2021/12/06 00:13:36;;;;;;;5.90;4.28;;;17.70;45.60;;;;;;5094151;28;20239;-63
2021/12/06 00:16:07;;;;;;;5.05;4.55;;;17.70;45.70;;;;;;5075806;28;20240;-63
2021/12/06 00:18:35;;;;;;;5.22;4.25;;;17.70;45.50;;;;;;5094381;28;20202;-63
2021/12/06 00:21:02;;;;;;;4.75;4.30;;;17.70;45.60;;;;;;5093873;28;20186;-63
2021/12/06 00:23:31;;;;;;;4.47;4.03;;;17.60;45.50;;;;;;5075750;28;20194;-62
2021/12/06 00:25:58;;;;;;;5.07;4.30;;;17.60;45.60;;;;;;5093790;28;20224;-63
2021/12/06 00:28:26;;;;;;;5.15;4.20;;;17.60;45.80;;;;;;5093704;28;20265;-63
2021/12/06 00:30:53;;;;;;;5.18;3.88;;;17.60;45.70;;;;;;5075493;28;20197;-63
2021/12/06 00:33:20;;;;;;;6.05;4.40;;;17.50;45.60;;;;;;5093834;28;20213;-63
2021/12/06 00:35:48;;;;;;;4.38;3.97;;;17.50;46.30;;;;;;5075519;28;20235;-62
2021/12/06 00:38:15;;;;;;;4.68;3.80;;;17.50;45.80;;;;;;5074858;28;20743;-63
2021/12/06 00:40:45;;;;;;;5.45;4.35;;;17.50;45.60;;;;;;5093666;28;20186;-63
2021/12/06 00:43:12;;;;;;;4.85;4.25;;;17.50;45.80;;;;;;5093853;28;20264;-63
2021/12/06 00:45:39;;;;;;;4.88;4.00;;;17.40;46.30;;;;;;5075423;28;20309;-63
2021/12/06 00:48:07;;;;;;;4.72;3.72;;;17.40;45.70;;;;;;5075592;28;20206;-63
2021/12/06 00:50:36;;;;;;;4.57;3.78;;;17.40;45.80;;;;;;5075489;28;20194;-63
2021/12/06 00:53:04;;;;;;;4.45;3.97;;;17.40;45.80;;;;;;5075683;28;20228;-63
2021/12/06 00:55:31;;;;;;;5.15;4.20;;;17.40;45.90;;;;;;5093339;28;20278;-63
2021/12/06 00:58:00;;;;;;;4.72;3.92;;;17.40;45.80;;;;;;5074965;28;20194;-62
2021/12/06 01:00:28;;;;;;;5.55;4.20;;;17.40;45.80;;;;;;5075039;28;20204;-63
2021/12/06 01:02:56;;;;;;;4.53;3.95;;;17.40;45.80;;;;;;5075066;28;20190;-63
2021/12/06 01:05:24;;;;;;;4.82;4.07;;;17.30;45.80;;;;;;5093034;28;20207;-63
2021/12/06 01:07:51;;;;;;;4.45;3.67;;;17.30;45.90;;;;;;5075147;28;20243;-63
2021/12/06 01:10:18;;;;;;;4.60;3.88;;;17.30;46.00;;;;;;5075115;28;20193;-63
2021/12/06 01:12:45;;;;;;;4.25;3.85;;;17.30;46.50;;;;;;5074890;28;20522;-63
2021/12/06 01:15:14;;;;;;;4.45;4.05;;;17.20;45.80;;;;;;5074917;28;20284;-63
2021/12/06 01:17:41;;;;;;;4.20;3.78;;;17.30;45.90;;;;;;5074826;28;20194;-63
2021/12/06 01:20:11;;;;;;;4.20;3.80;;;17.20;45.80;;;;;;5074786;28;20283;-63
2021/12/06 01:22:44;;;;;;;4.20;3.80;;;17.20;46.00;;;;;;5075867;28;20527;-62
2021/12/06 01:25:25;;;;;;;4.10;3.70;;;17.20;45.80;;;;;;5075417;28;20232;-63
2021/12/06 01:28:19;;;;;;;4.05;3.75;;;17.20;45.90;;;;;;5075475;28;20243;-63
2021/12/06 01:30:59;;;;;;;3.75;3.45;;;17.20;46.00;;;;;;5075315;28;20228;-63
2021/12/06 01:34:06;;;;;;;4.32;3.92;;;17.10;46.00;;;;;;5075685;28;20563;-63
2021/12/06 01:39:20;;;;;;;5.22;4.00;;;17.10;46.00;;;;;;5075494;28;20217;-62
2021/12/06 01:41:51;;;;;;;4.10;3.70;;;17.10;46.00;;;;;;5076209;28;20276;-62
2021/12/06 01:44:20;;;;;;;4.03;3.63;;;17.10;46.10;;;;;;5076152;28;20690;-62
2021/12/06 01:47:00;;;;;;;4.20;3.80;;;17.10;46.20;;;;;;5076537;28;20281;-63
2021/12/06 01:49:31;;;;;;;4.68;3.92;;;17.10;46.20;;;;;;5078691;28;20621;-63
2021/12/06 01:51:59;;;;;;;4.32;3.90;;;17.00;46.20;;;;;;5079817;28;20293;-63
2021/12/06 01:54:28;;;;;;;3.92;3.53;;;17.00;46.20;;;;;;5079146;28;20214;-63
2021/12/06 01:56:56;;;;;;;4.15;3.60;;;17.00;46.10;;;;;;5078855;28;20196;-63
2021/12/06 01:59:23;;;;;;;4.18;3.40;;;17.00;46.20;;;;;;5079073;28;20217;-63
2021/12/06 02:01:50;;;;;;;4.03;3.63;;;17.00;46.20;;;;;;5090972;28;20198;-62
2021/12/06 02:04:19;;;;;;;3.70;3.40;;;17.00;46.20;;;;;;5087914;28;20657;-63
2021/12/06 02:06:47;;;;;;;4.63;3.70;;;17.00;46.20;;;;;;5078661;28;20539;-62
2021/12/06 02:09:17;;;;;;;4.82;3.72;;;16.90;46.20;;;;;;5078649;28;20281;-62
2021/12/06 02:11:44;;;;;;;3.50;3.20;;;17.00;46.30;;;;;;5078400;28;20673;-63
2021/12/06 02:14:25;;;;;;;3.75;3.28;;;16.90;46.30;;;;;;5078222;28;20220;-62
2021/12/06 02:17:05;;;;;;;3.90;3.60;;;16.90;46.30;;;;;;5078223;28;20198;-63
2021/12/06 02:19:39;;;;;;;4.10;3.70;;;16.90;46.90;;;;;;5078246;28;20591;-62
2021/12/06 02:22:08;;;;;;;4.00;3.60;;;16.90;46.40;;;;;;5078230;28;20194;-63
2021/12/06 02:24:37;;;;;;;3.90;3.58;;;16.90;46.40;;;;;;5078155;28;20221;-63
2021/12/06 02:27:06;;;;;;;3.65;3.35;;;16.80;46.30;;;;;;5078198;28;20197;-63
2021/12/06 02:29:33;;;;;;;3.90;3.58;;;16.80;46.30;;;;;;5078088;28;20190;-63
2021/12/06 02:32:05;;;;;;;4.22;3.70;;;16.80;46.40;;;;;;5078366;28;20249;-63
2021/12/06 02:34:33;;;;;;;3.63;3.33;;;16.80;46.50;;;;;;5077970;28;20772;-63
2021/12/06 02:37:00;;;;;;;4.28;3.70;;;16.80;46.50;;;;;;5077900;28;20222;-63
2021/12/06 02:39:30;;;;;;;4.07;3.63;;;16.80;47.10;;;;;;5077999;28;20217;-62
2021/12/06 02:41:58;;;;;;;3.92;3.53;;;16.80;46.50;;;;;;5077945;28;20194;-63
2021/12/06 02:44:25;;;;;;;4.15;3.53;;;16.70;46.20;;;;;;5096161;28;20217;-63
2021/12/06 02:46:52;;;;;;;3.80;3.50;;;16.80;46.40;;;;;;5077829;28;20688;-63
2021/12/06 02:49:22;;;;;;;4.07;3.70;;;16.80;46.40;;;;;;5078080;28;20657;-63
2021/12/06 02:51:51;;;;;;;4.07;3.67;;;16.70;46.50;;;;;;5078083;28;20703;-63
2021/12/06 02:54:19;;;;;;;4.25;3.67;;;16.70;46.40;;;;;;5078207;28;20305;-63
2021/12/06 02:56:55;;;;;;;3.70;3.40;;;16.70;46.50;;;;;;5078113;28;20205;-63
2021/12/06 02:59:24;;;;;;;4.28;3.45;;;16.70;47.10;;;;;;5077594;28;20584;-63
2021/12/06 03:01:54;;;;;;;4.18;3.50;;;16.70;46.50;;;;;;5076858;28;20202;-62
2021/12/06 03:04:22;;;;;;;3.67;3.38;;;16.70;46.50;;;;;;5077300;28;20300;-62
2021/12/06 03:06:53;;;;;;;3.78;3.08;;;16.70;46.50;;;;;;5077542;28;20243;-63
2021/12/06 03:09:23;;;;;;;4.05;3.65;;;16.70;46.50;;;;;;5095750;28;20179;-63
2021/12/06 03:11:56;;;;;;;3.97;3.42;;;16.70;46.60;;;;;;5077556;28;20248;-63
2021/12/06 03:14:26;;;;;;;3.58;3.28;;;16.60;46.30;;;;;;5077358;28;20218;-63
2021/12/06 03:16:58;;;;;;;3.83;3.53;;;16.70;46.40;;;;;;5077001;28;20610;-63
2021/12/06 03:19:27;;;;;;;3.45;3.15;;;16.70;46.40;;;;;;5076786;28;20216;-63
2021/12/06 03:21:55;;;;;;;3.70;3.40;;;16.70;46.50;;;;;;5076948;28;20201;-63
2021/12/06 03:24:22;;;;;;;3.60;3.30;;;16.60;46.40;;;;;;5092797;22;20309;-68
2021/12/06 03:26:50;;;;;;;4.65;3.47;;;16.60;46.40;;;;;;5057823;28;20663;-68
2021/12/06 03:29:19;;;;;;;3.55;3.25;;;16.60;46.30;;;;;;5057447;28;20273;-68
2021/12/06 03:31:47;;;;;;;3.90;3.50;;;16.60;46.50;;;;;;5056749;28;20199;-67
2021/12/06 03:34:15;;;;;;;3.60;3.30;;;16.60;46.50;;;;;;5063433;28;20210;-68
2021/12/06 03:36:43;;;;;;;3.60;3.30;;;16.60;46.50;;;;;;5077056;28;20575;-68
2021/12/06 03:39:12;;;;;;;3.90;3.60;;;16.60;46.40;;;;;;5076644;28;20304;-68
2021/12/06 03:41:39;;;;;;;3.63;3.33;;;16.60;46.50;;;;;;5076764;28;20597;-68
2021/12/06 03:44:07;;;;;;;4.15;3.35;;;16.60;46.50;;;;;;5076718;28;20214;-68
2021/12/06 03:46:37;;;;;;;3.72;3.42;;;16.60;46.50;;;;;;5094795;28;20182;-68
2021/12/06 03:49:08;;;;;;;3.88;3.55;;;16.50;46.40;;;;;;5076726;28;20216;-68
2021/12/06 03:51:35;;;;;;;3.78;3.47;;;16.50;46.50;;;;;;5076766;28;20190;-68
2021/12/06 03:54:02;;;;;;;3.55;3.25;;;16.50;46.40;;;;;;5076703;28;20206;-68
2021/12/06 03:56:30;;;;;;;3.78;3.47;;;16.50;46.50;;;;;;5076696;28;20220;-68
2021/12/06 03:58:59;;;;;;;3.50;3.20;;;16.50;46.30;;;;;;5076261;28;20195;-67
2021/12/06 04:01:26;;;;;;;4.10;3.70;;;16.50;46.50;;;;;;5076535;28;20201;-68
2021/12/06 04:03:56;;;;;;;3.70;3.40;;;16.50;46.40;;;;;;5076396;28;20305;-68
2021/12/06 04:06:23;;;;;;;3.97;3.58;;;16.50;46.30;;;;;;5076413;28;20198;-68
2021/12/06 04:08:51;;;;;;;3.80;3.50;;;16.50;46.50;;;;;;5076360;28;20194;-68
2021/12/06 04:11:19;;;;;;;3.67;3.22;;;16.50;46.50;;;;;;5076081;28;20271;-68
2021/12/06 04:13:47;;;;;;;3.97;3.58;;;16.50;46.40;;;;;;5075239;28;20289;-68
2021/12/06 04:16:14;;;;;;;4.30;3.90;;;16.50;46.50;;;;;;5076017;28;20198;-68
2021/12/06 04:18:42;;;;;;;3.50;3.20;;;16.50;46.70;;;;;;5076034;28;20657;-67
2021/12/06 04:21:14;;;;;;;3.95;3.65;;;16.50;46.60;;;;;;5075653;28;20210;-68
2021/12/06 04:23:42;;;;;;;4.95;3.88;;;16.50;46.70;;;;;;5093887;28;20182;-68
2021/12/06 04:26:11;;;;;;;3.90;3.47;;;16.50;46.50;;;;;;5093798;28;20190;-68
2021/12/06 04:28:43;;;;;;;4.20;3.90;;;16.50;46.60;;;;;;5075779;28;20194;-68
2021/12/06 04:31:11;;;;;;;4.13;3.80;;;16.50;46.50;;;;;;5075609;28;20677;-67
2021/12/06 04:33:38;;;;;;;4.35;4.05;;;16.50;46.40;;;;;;5075527;28;20186;-68
2021/12/06 04:36:05;;;;;;;4.65;4.25;;;16.50;46.30;;;;;;5075568;28;20676;-68
2021/12/06 04:38:34;;;;;;;4.32;3.92;;;16.60;46.50;;;;;;5075478;28;20221;-68
2021/12/06 04:41:03;;;;;;;4.88;4.47;;;16.60;46.30;;;;;;5075428;28;20232;-67
2021/12/06 04:43:30;;;;;;;4.75;4.35;;;16.60;46.20;;;;;;5075195;28;20201;-68
2021/12/06 04:45:58;;;;;;;4.65;4.15;;;16.60;46.60;;;;;;5075361;28;20259;-68
2021/12/06 04:48:25;;;;;;;5.05;4.43;;;16.60;46.10;;;;;;5093472;28;20186;-68
2021/12/06 04:50:52;;;;;;;4.45;4.13;;;16.70;46.10;;;;;;5075243;28;20192;-68
2021/12/06 04:53:22;;;;;;;5.25;4.82;;;16.70;46.20;;;;;;5075124;28;20198;-68
2021/12/06 04:55:52;;;;;;;4.68;4.22;;;16.70;46.10;;;;;;5075173;28;20224;-67
2021/12/06 04:58:22;;;;;;;5.25;4.75;;;16.70;46.00;;;;;;5075304;28;20190;-68
2021/12/06 05:00:51;;;;;;;5.18;4.78;;;16.70;45.90;;;;;;5075151;28;20221;-68
2021/12/06 05:03:18;;;;;;;4.78;4.38;;;16.70;45.80;;;;;;5075205;28;20202;-67
2021/12/06 05:05:48;;;;;;;4.60;4.25;;;16.70;45.90;;;;;;5075178;28;20214;-67
2021/12/06 05:08:16;;;;;;;4.68;4.28;;;16.80;46.20;;;;;;5074129;22;20320;-54
2021/12/06 05:10:43;;;;;;;4.80;4.40;;;16.80;46.30;;;;;;5074621;28;20194;-54
2021/12/06 05:13:13;;;;;;;5.47;4.97;;;16.80;46.50;;;;;;5074749;28;20198;-54
2021/12/06 05:15:40;;;;;;;6.18;4.88;;;16.80;47.00;;;;;;5074676;28;20277;-54
2021/12/06 05:18:08;;;;;;;4.68;4.22;;;16.90;47.00;;;;;;5074543;28;20585;-54
2021/12/06 05:20:36;;;;;;;5.15;4.45;;;16.90;46.90;;;;;;5092732;28;20228;-55
2021/12/06 05:23:04;;;;;;;4.32;3.95;;;16.90;46.90;;;;;;5074541;28;20228;-54
2021/12/06 05:25:32;;;;;;;4.38;3.97;;;16.90;46.90;;;;;;5074218;28;20198;-54
2021/12/06 05:27:59;;;;;;;4.20;3.90;;;17.00;47.10;;;;;;5092558;28;20289;-55
2021/12/06 05:30:29;;;;;;;4.88;4.45;;;17.00;46.80;;;;;;5074454;28;20201;-55
2021/12/06 05:32:59;;;;;;;4.97;4.10;;;17.00;46.60;;;;;;5074035;28;20194;-55
2021/12/06 05:35:26;;;;;;;4.30;4.00;;;17.00;46.60;;;;;;5083229;22;20288;-67
2021/12/06 05:37:55;;;;;;;4.40;4.03;;;17.00;46.30;;;;;;5072657;28;20622;-67
2021/12/06 05:40:24;;;;;;;4.97;4.57;;;17.10;46.50;;;;;;5055544;28;20237;-67
2021/12/06 05:42:51;;;;;;;4.70;4.28;;;17.10;46.00;;;;;;5072320;28;20198;-67
2021/12/06 05:45:20;;;;;;;4.65;4.25;;;17.10;46.00;;;;;;5069525;28;20218;-67
2021/12/06 05:47:48;;;;;;;4.25;3.95;;;17.10;45.80;;;;;;5074776;28;20198;-67
2021/12/06 05:50:16;;;;;;;4.30;3.90;;;17.20;45.90;;;;;;5092875;28;20621;-67
2021/12/06 05:52:43;;;;;;;4.45;4.05;;;17.20;45.90;;;;;;5074710;28;20224;-67
2021/12/06 05:55:11;;;;;;;4.95;4.35;;;17.20;45.50;;;;;;3631327;22;20728;-52
2021/12/06 05:57:38;;;;;;;4.15;3.85;;;17.20;46.30;;;;;;5072206;28;20174;-55
2021/12/06 06:00:06;;;;;;;4.32;4.03;;;17.30;45.80;;;;;;5089983;28;20327;-53
2021/12/06 06:02:39;;;;;;;6.60;4.35;;;17.30;46.00;;;;;;5092539;28;20217;-54
2021/12/06 06:05:09;;;;;;;4.93;4.53;;;17.30;45.20;;;;;;5092414;28;20400;-53
2021/12/06 06:07:36;;;;;;;4.78;4.38;;;17.30;44.80;;;;;;5090697;28;20276;-54
2021/12/06 06:10:04;;;;;;;5.03;4.13;;;17.30;45.10;;;;;;5092420;28;20221;-53
2021/12/06 06:12:31;;;;;;;4.78;4.30;;;17.30;45.00;;;;;;5090897;28;20539;-53
2021/12/06 06:14:58;;;;;;;5.10;4.60;;;17.40;45.20;;;;;;5090816;28;20189;-53
2021/12/06 06:17:27;;;;;;;5.05;4.65;;;17.30;45.10;;;;;;5092303;28;20190;-52
2021/12/06 06:19:56;;;;;;;5.28;4.78;;;17.40;45.00;;;;;;5092274;28;20232;-53
2021/12/06 06:22:25;;;;;;;5.47;4.80;;;17.30;45.00;;;;;;5092521;28;20222;-52
2021/12/06 06:24:53;;;;;;;5.20;4.70;;;17.40;45.20;;;;;;5092853;28;20670;-52
2021/12/06 06:27:20;;;;;;;4.75;4.35;;;17.30;45.00;;;;;;5092077;28;20691;-53
2021/12/06 06:29:48;;;;;;;5.05;4.65;;;17.40;45.00;;;;;;5092257;28;20209;-52
2021/12/06 06:32:15;;;;;;;5.68;5.18;;;17.40;45.80;;;;;;5090965;28;20725;-53
2021/12/06 06:34:42;;;;;;;5.15;4.65;;;17.40;45.20;;;;;;5092255;28;20220;-53
2021/12/06 06:37:10;;;;;;;5.55;5.10;;;17.40;45.10;;;;;;5093160;28;20218;-52
2021/12/06 06:39:39;;;;;;;6.40;5.90;;;17.40;45.00;;;;;;5094963;28;20218;-52
2021/12/06 06:42:06;;;;;;;5.82;5.32;;;17.40;44.90;;;;;;5095047;28;20661;-53
2021/12/06 06:44:33;;;;;;;5.65;5.05;;;17.40;44.80;;;;;;5097056;28;20557;-53
2021/12/06 06:47:01;;;;;;;5.22;4.80;;;17.40;44.70;;;;;;5096132;28;20665;-53
2021/12/06 06:49:31;;;;;;;6.10;5.60;;;17.40;44.70;;;;;;5094816;28;20221;-53
2021/12/06 06:51:58;;;;;;;6.00;5.50;;;17.40;44.70;;;;;;5094250;28;20198;-53
2021/12/06 06:54:25;;;;;;;5.88;5.38;;;17.40;44.60;;;;;;5094287;28;20225;-53
2021/12/06 06:56:53;;;;;;;5.30;4.90;;;17.50;44.80;;;;;;5094293;28;20273;-54
2021/12/06 06:59:21;;;;;;;5.57;5.07;;;17.40;44.80;;;;;;5094093;28;20225;-54
2021/12/06 07:01:48;;;;;;;5.47;4.97;;;17.40;44.60;;;;;;5093914;28;20267;-54
2021/12/06 07:04:15;;;;;;;4.90;4.50;;;17.50;44.70;;;;;;5094048;28;20259;-54
2021/12/06 07:06:44;;;;;;;5.13;4.63;;;17.40;44.70;;;;;;5093786;28;20746;-54
2021/12/06 07:09:11;;;;;;;4.97;4.57;;;17.50;45.00;;;;;;5095173;28;20584;-54
2021/12/06 07:11:40;;;;;;;6.43;5.00;;;17.50;44.90;;;;;;5093894;28;20225;-54
2021/12/06 07:14:09;;;;;;;5.60;5.10;;;17.50;44.70;;;;;;5095125;28;20194;-54
2021/12/06 07:16:36;;;;;;;5.22;4.82;;;17.50;44.60;;;;;;5095240;28;20194;-54
2021/12/06 07:19:03;;;;;;;5.18;4.78;;;17.50;44.70;;;;;;5093834;28;20253;-54
2021/12/06 07:21:30;;;;;;;5.85;5.15;;;17.50;44.70;;;;;;5095017;28;20206;-54
2021/12/06 07:23:58;;;;;;;5.53;5.13;;;17.50;44.60;;;;;;5094839;28;20650;-54
2021/12/06 07:26:25;;;;;;;5.43;5.03;;;17.50;44.40;;;;;;5094819;28;20200;-53
2021/12/06 07:28:54;;;;;;;5.47;5.00;;;17.50;44.30;;;;;;5093235;28;20226;-53
2021/12/06 07:31:23;;;;;;;5.47;5.07;;;17.50;44.30;;;;;;5094621;28;20182;-53
2021/12/06 07:33:51;;;;;;;5.05;4.55;;;17.60;44.30;;;;;;5094852;28;20225;-52
2021/12/06 07:36:18;;;;;;;6.72;5.70;;;17.50;44.10;;;;;;5094388;28;20230;-53
2021/12/06 07:38:45;;;;;;;6.00;5.35;;;17.60;44.20;;;;;;5094280;28;20210;-52
2021/12/06 07:41:13;;;;;;;6.00;5.50;;;17.60;44.30;;;;;;5094456;28;20207;-53
2021/12/06 07:43:41;;;;;;;6.00;5.40;;;17.60;44.20;;;;;;5094246;28;20547;-53
2021/12/06 07:46:08;;;;;;;5.70;5.20;;;17.60;44.70;;;;;;5092964;28;20247;-53
2021/12/06 07:48:37;;;;;;;5.40;4.90;;;17.60;44.10;;;;;;5094401;28;20214;-53
2021/12/06 07:51:05;;;;;;;5.88;5.35;;;17.60;44.10;;;;;;5094394;28;20213;-53
2021/12/06 07:53:34;;;;;;;6.32;5.75;;;17.60;44.00;;;;;;5093074;28;20786;-53
2021/12/06 07:56:01;;;;;;;6.10;5.50;;;17.60;43.90;;;;;;5094395;28;20224;-53
2021/12/06 07:58:28;;;;;;;6.15;5.55;;;17.70;43.90;;;;;;5094449;28;20292;-53
2021/12/06 08:00:56;;;;;;;5.78;5.28;;;17.60;43.90;;;;;;5093982;28;20298;-54
2021/12/06 08:03:26;;;;;;;5.75;5.25;;;17.70;43.90;;;;;;5094099;28;20274;-54
2021/12/06 08:05:55;;;;;;;5.75;5.18;;;17.70;44.00;;;;;;5094057;28;20642;-53
2021/12/06 08:08:23;;;;;;;6.03;5.53;;;17.70;43.90;;;;;;5092443;28;20728;-54
2021/12/06 08:10:53;;;;;;;5.75;5.25;;;17.70;43.90;;;;;;5093979;28;20218;-53
2021/12/06 08:13:23;;;;;;;5.22;4.75;;;17.70;43.90;;;;;;5094356;28;20221;-53
2021/12/06 08:15:51;;;;;;;5.35;4.88;;;17.70;43.90;;;;;;5093833;28;20190;-54
2021/12/06 08:18:18;;;;;;;5.60;5.10;;;17.70;44.30;;;;;;5092501;28;20300;-53
2021/12/06 08:20:46;;;;;;;6.40;5.80;;;17.80;44.00;;;;;;5093757;28;20259;-54
2021/12/06 08:23:15;;;;;;;5.68;5.18;;;17.70;43.50;;;;;;5094054;28;20186;-53
2021/12/06 08:25:43;;;;;;;5.50;5.00;;;17.80;43.70;;;;;;5092420;28;20681;-53
2021/12/06 08:28:10;;;;;;;5.63;5.05;;;17.80;43.90;;;;;;5093553;28;20787;-53
2021/12/06 08:30:37;;;;;;;5.80;5.30;;;17.80;43.70;;;;;;5093398;28;20205;-53
2021/12/06 08:33:06;;;;;;;7.47;5.43;;;17.80;43.70;;;;;;5093721;28;20190;-53
2021/12/06 08:35:34;;;;;;;5.85;5.32;;;17.80;43.70;;;;;;5093889;28;20603;-53
2021/12/06 08:38:01;;;;;;;5.47;5.07;;;17.80;43.70;;;;;;5093473;28;20247;-54
2021/12/06 08:40:30;;;;;;;6.18;5.40;;;17.80;43.70;;;;;;5093215;28;20243;-53
2021/12/06 08:43:00;;;;;;;5.18;4.78;;;17.80;43.70;;;;;;5093299;28;20185;-54
2021/12/06 08:45:27;;;;;;;6.13;5.47;;;17.80;43.70;;;;;;5091949;28;20232;-53
2021/12/06 08:47:54;;;;;;;5.85;5.35;;;17.80;43.40;;;;;;5091559;28;20206;-54
2021/12/06 08:50:23;;;;;;;5.68;5.18;;;17.80;43.50;;;;;;5093029;28;20266;-54
2021/12/06 08:52:50;;;;;;;5.72;5.22;;;17.80;43.60;;;;;;5093013;28;20217;-54
2021/12/06 08:55:18;;;;;;;5.82;5.20;;;17.80;43.50;;;;;;5091631;28;20262;-53
2021/12/06 08:57:46;;;;;;;5.68;5.05;;;17.80;43.40;;;;;;5093125;28;20209;-53
2021/12/06 09:00:16;;;;;;;5.32;4.82;;;17.80;44.10;;;;;;5092564;28;20186;-53
2021/12/06 09:02:44;;;;;;;5.20;4.70;;;17.90;43.60;;;;;;5091989;28;20248;-52
2021/12/06 09:05:11;;;;;;;5.82;5.32;;;17.90;43.40;;;;;;5093030;28;20190;-53
2021/12/06 09:07:38;;;;;;;5.65;5.15;;;17.90;43.50;;;;;;5092936;28;20186;-53
2021/12/06 09:10:06;;;;;;;5.55;5.10;;;17.90;43.30;;;;;;5092980;28;20235;-53
2021/12/06 09:12:36;;;;;;;5.55;5.05;;;17.90;43.30;;;;;;5093291;28;20190;-54
2021/12/06 09:15:07;;;;;;;5.68;5.18;;;17.90;43.30;;;;;;5091627;28;20669;-52
2021/12/06 09:17:34;;;;;;;5.63;5.03;;;17.90;43.20;;;;;;5092828;28;20186;-54
2021/12/06 09:20:01;;;;;;;6.05;5.55;;;17.90;43.30;;;;;;5092795;28;20683;-53
2021/12/06 09:22:29;;;;;;;5.82;5.32;;;17.90;43.20;;;;;;5092829;28;20210;-53
2021/12/06 09:24:57;;;;;;;5.55;5.05;;;17.90;43.20;;;;;;5092584;28;20594;-53
2021/12/06 09:27:25;;;;;;;5.40;4.93;;;17.90;43.00;;;;;;5093095;28;20570;-53
2021/12/06 09:29:55;;;;;;;4.80;4.40;;;18.00;43.10;;;;;;5092989;28;20201;-54
2021/12/06 09:32:25;;;;;;;5.57;4.95;;;18.00;43.10;;;;;;5092942;28;20265;-54
2021/12/06 09:34:56;;;;;;;5.60;5.10;;;18.00;43.00;;;;;;5092774;28;20186;-53
2021/12/06 09:37:23;;;;;;;5.53;5.03;;;18.00;43.00;;;;;;5092861;28;20236;-53
2021/12/06 09:39:51;;;;;;;5.75;5.25;;;18.00;43.00;;;;;;5093019;28;20232;-54
2021/12/06 09:42:19;;;;;;;4.88;4.47;;;18.10;43.10;;;;;;5093060;28;20305;-52
2021/12/06 09:44:46;;;;;;;5.40;4.90;;;18.00;43.00;;;;;;5092138;28;20198;-53
2021/12/06 09:47:13;;;;;;;5.15;4.75;;;18.10;43.10;;;;;;5093096;28;20225;-52
2021/12/06 09:49:42;;;;;;;4.72;4.43;;;18.10;43.20;;;;;;5092580;28;20216;-52
2021/12/06 09:52:11;;;;;;;4.38;3.97;;;18.10;43.10;;;;;;5092682;28;20190;-53
2021/12/06 09:54:39;;;;;;;4.68;4.28;;;18.10;43.20;;;;;;5091210;28;20214;-53
2021/12/06 09:57:07;;;;;;;4.82;4.43;;;18.10;43.00;;;;;;5091325;28;20270;-53
2021/12/06 09:59:35;;;;;;;4.50;4.15;;;18.10;42.90;;;;;;5091072;28;20218;-53
2021/12/06 10:02:04;;;;;;;4.72;4.32;;;18.10;43.00;;;;;;5092437;28;20228;-53
2021/12/06 10:04:34;;;;;;;4.30;3.97;;;18.10;43.00;;;;;;5092550;28;20193;-53
2021/12/06 10:07:02;;;;;;;4.75;4.35;;;18.10;42.80;;;;;;5091122;28;20284;-53
2021/12/06 10:09:30;;;;;;;5.20;4.80;;;18.20;43.00;;;;;;5090840;28;20218;-53
2021/12/06 10:11:58;;;;;;;4.72;4.32;;;18.20;42.80;;;;;;5094542;28;20182;-53
2021/12/06 10:14:25;;;;;;;5.30;4.90;;;18.20;42.70;;;;;;5096135;28;20221;-53
2021/12/06 10:16:53;;;;;;;5.88;5.43;;;18.20;42.60;;;;;;5097374;28;20665;-53
2021/12/06 10:19:21;;;;;;;4.95;4.45;;;18.20;43.10;;;;;;5094872;28;20228;-54
2021/12/06 10:21:52;;;;;;;5.30;4.80;;;18.20;42.60;;;;;;5096329;28;20289;-54
2021/12/06 10:24:26;;;;;;;4.43;4.03;;;18.30;42.60;;;;;;5094761;28;20551;-54
2021/12/06 10:27:03;;;;;;;5.05;4.43;;;18.30;42.50;;;;;;5095978;28;20174;-54
2021/12/06 10:29:37;;;;;;;5.40;4.90;;;18.30;42.40;;;;;;5096334;28;20623;-54
2021/12/06 10:32:11;;;;;;;4.90;4.50;;;18.30;42.40;;;;;;5095928;28;20228;-54
2021/12/06 10:34:47;;;;;;;5.03;4.63;;;18.30;42.40;;;;;;5094758;28;20200;-54
2021/12/06 10:37:28;;;;;;;4.93;4.53;;;18.40;42.40;;;;;;5094274;28;20204;-54
2021/12/06 10:39:57;;;;;;;4.72;4.32;;;18.40;43.00;;;;;;5094466;28;20253;-54
2021/12/06 10:42:29;;;;;;;4.82;4.38;;;18.40;42.30;;;;;;5095482;28;20216;-54
2021/12/06 10:44:56;;;;;;;4.13;3.83;;;18.40;42.30;;;;;;5095573;28;20267;-51
2021/12/06 10:47:23;;;;;;;5.10;4.65;;;18.40;42.30;;;;;;5095863;28;20194;-53
2021/12/06 10:49:51;;;;;;;4.25;3.85;;;18.40;42.10;;;;;;5094131;28;20325;-53
2021/12/06 10:52:26;;;;;;;4.78;4.38;;;18.40;42.20;;;;;;5096457;28;20239;-54
2021/12/06 10:54:54;;;;;;;4.50;4.10;;;18.40;42.30;;;;;;5093912;28;20341;-53
2021/12/06 10:57:22;;;;;;;4.53;4.13;;;18.40;42.20;;;;;;5093923;28;20217;-54
2021/12/06 10:59:50;;;;;;;4.25;3.90;;;18.50;42.30;;;;;;5095756;28;20212;-53
2021/12/06 11:02:18;;;;;;;4.35;3.95;;;18.50;42.20;;;;;;5095064;28;20296;-53
2021/12/06 11:04:47;;;;;;;4.68;4.10;;;18.50;42.20;;;;;;5095212;28;20205;-53
2021/12/06 11:07:15;;;;;;;4.43;4.03;;;18.50;42.30;;;;;;5095183;28;20194;-53
2021/12/06 11:09:43;;;;;;;3.97;3.67;;;18.50;42.00;;;;;;5094906;28;20241;-53
2021/12/06 11:12:11;;;;;;;3.75;3.35;;;18.50;42.60;;;;;;5094947;28;20598;-53
2021/12/06 11:14:41;;;;;;;3.45;3.15;;;18.50;41.90;;;;;;5095072;28;20232;-53
2021/12/06 11:17:09;;;;;;;3.65;3.35;;;18.50;41.80;;;;;;5095069;28;20224;-53
2021/12/06 11:19:36;;;;;;;3.58;3.28;;;18.60;41.90;;;;;;5094935;28;20214;-53
2021/12/06 11:22:05;;;;;;;3.72;3.42;;;18.60;42.20;;;;;;5094480;28;20291;-53
2021/12/06 11:24:34;;;;;;;3.72;3.42;;;18.60;42.20;;;;;;5094010;28;20667;-53
2021/12/06 11:27:03;;;;;;;3.03;2.83;;;18.60;42.20;;;;;;5093673;28;20282;-53
2021/12/06 11:29:32;;;;;;;3.78;3.35;;;18.60;42.10;;;;;;5094803;28;20251;-53
2021/12/06 11:32:10;;;;;;;3.33;3.03;;;18.60;42.00;;;;;;5094982;28;20186;-53
2021/12/06 11:34:39;;;;;;;3.47;3.17;;;18.60;42.20;;;;;;5094976;28;20231;-53
2021/12/06 11:37:15;;;;;;;4.03;3.10;;;18.60;42.20;;;;;;5094685;28;20680;-53
2021/12/06 11:39:43;;;;;;;3.20;2.90;;;18.60;42.00;;;;;;5094555;28;20825;-53
2021/12/06 11:42:10;;;;;;;3.13;2.92;;;18.60;41.80;;;;;;5094667;28;20717;-53
2021/12/06 11:44:42;;;;;;;3.13;2.90;;;18.50;41.90;;;;;;5093232;28;20201;-53
2021/12/06 11:47:12;;;;;;;2.92;2.72;;;18.60;42.00;;;;;;5094626;28;20214;-54
2021/12/06 11:49:42;;;;;;;2.90;2.70;;;18.60;41.80;;;;;;5094863;28;20214;-53
2021/12/06 11:52:13;;;;;;;2.95;2.75;;;18.60;41.80;;;;;;5094976;28;20193;-54
2021/12/06 11:54:42;;;;;;;3.00;2.70;;;18.60;41.80;;;;;;5094281;28;20682;-53
2021/12/06 11:57:12;;;;;;;3.33;3.03;;;18.60;41.80;;;;;;5094659;28;20253;-53
2021/12/06 11:59:50;;;;;;;3.25;2.95;;;18.60;41.80;;;;;;5093040;28;20697;-54
2021/12/06 12:02:28;;;;;;;3.20;2.90;;;18.60;41.80;;;;;;5094161;28;20243;-53
2021/12/06 12:05:09;;;;;;;3.08;2.88;;;18.60;41.70;;;;;;5094487;28;20205;-53
2021/12/06 12:07:55;;;;;;;3.47;3.17;;;18.60;41.70;;;;;;5094824;28;20201;-53
2021/12/06 12:10:30;;;;;;;3.22;2.92;;;18.60;41.90;;;;;;5094244;28;20190;-53
2021/12/06 12:12:58;;;;;;;3.20;3.00;;;18.60;41.70;;;;;;5094335;28;20589;-53
2021/12/06 12:15:25;;;;;;;3.55;3.25;;;18.60;41.60;;;;;;5094325;28;20225;-53
2021/12/06 12:17:54;;;;;;;3.05;2.80;;;18.60;41.60;;;;;;5094278;28;20218;-53
2021/12/06 12:20:23;;;;;;;2.88;2.67;;;18.60;41.70;;;;;;5094252;28;20186;-53
2021/12/06 12:22:50;;;;;;;3.83;3.53;;;18.70;41.90;;;;;;5094036;28;20212;-53
2021/12/06 12:25:24;;;;;;;3.22;3.03;;;18.70;41.40;;;;;;5094091;28;20186;-54
2021/12/06 12:27:57;;;;;;;2.65;2.45;;;18.70;41.50;;;;;;5094058;28;20173;-53
2021/12/06 12:30:31;;;;;;;3.80;3.50;;;18.70;41.60;;;;;;5092616;28;20243;-53
2021/12/06 12:33:02;;;;;;;3.47;3.17;;;18.80;41.40;;;;;;5093783;28;20183;-53
2021/12/06 12:35:30;;;;;;;3.17;2.95;;;18.80;41.20;;;;;;5092239;28;20554;-53
2021/12/06 12:37:58;;;;;;;2.90;2.70;;;18.80;41.00;;;;;;5094217;28;20217;-53
2021/12/06 12:40:26;;;;;;;2.92;2.72;;;18.80;41.10;;;;;;5095312;28;20190;-54
2021/12/06 12:42:59;;;;;;;3.17;2.90;;;18.90;41.20;;;;;;5095070;28;20210;-54
2021/12/06 12:45:33;;;;;;;3.08;2.88;;;18.80;41.20;;;;;;5094448;28;20248;-54
2021/12/06 12:48:02;;;;;;;3.30;3.00;;;18.90;41.40;;;;;;5092982;28;20198;-54
2021/12/06 12:50:30;;;;;;;3.08;2.78;;;18.80;41.20;;;;;;5093899;28;20234;-54
2021/12/06 12:52:59;;;;;;;2.80;2.60;;;18.90;40.90;;;;;;5094309;28;20611;-53
2021/12/06 12:55:28;;;;;;;3.00;2.80;;;18.90;41.40;;;;;;5092363;28;20265;-54
2021/12/06 12:58:06;;;;;;;3.03;2.83;;;18.90;41.20;;;;;;5094214;28;20194;-55
2021/12/06 13:00:34;;;;;;;3.13;2.78;;;18.90;41.40;;;;;;5094487;28;20186;-55